Swift Ace — C6XB8 — position and weather

sailwx.info

Track history (hours):
 
Tides and Currents Weather Stations Pressure Air Temp Water Temp Dewpoint Dewpoint Depression Visibility Wind Speed Wind Dir Waves Ship Positions

Swift Ace

Last reported at 2016-May-31 22:13 UTC. Time now 2016-Jun-01 01:46 UTC.
Position S 33°24' E 017°31'.

Length 200 m; draft 8.6 m.

Type: Cargo ship. MMSI: 310968322.

Date/timePositionNaut miles runAvg speedWind from/ knotsBaromVisibWave heightAir tempDewpointWater temp
2016-May-31 22:13S 33°24' E 017°31'1115.9
2016-May-31 21:33S 33°34' E 017°35'1615.9
2016-May-31 20:33S 33°49' E 017°42'1615.5
2016-May-31 19:33S 34°04' E 017°48'1615.6
2016-May-31 18:32S 34°18' E 017°56'1615.5
2016-May-31 17:31S 34°31' E 018°08'  
2016-May-29 02:24S 30°41' E 030°42'1315.1
2016-May-29 01:33S 30°30' E 030°50'1515.0
2016-May-29 00:33S 30°17' E 030°59'1414.1
2016-May-28 23:34S 30°05' E 031°08'1312.6
2016-May-28 22:33S 29°53' E 031°09'6 5.8
2016-May-28 21:31S 29°52' E 031°02'0 0.0
2016-May-28 20:31S 29°52' E 031°02'0 0.0
2016-May-28 19:31S 29°52' E 031°02'0 0.0
2016-May-28 18:31S 29°52' E 031°02'0 0.0
2016-May-28 17:31S 29°52' E 031°02'0 0.0
2016-May-28 16:31S 29°52' E 031°02'0 0.0
2016-May-28 15:31S 29°52' E 031°02'0 0.0
2016-May-28 14:31S 29°52' E 031°02'0 0.0
2016-May-28 13:31S 29°52' E 031°02'0 0.0
2016-May-28 12:31S 29°52' E 031°02'0 0.0
2016-May-28 11:31S 29°52' E 031°02'0 0.0
2016-May-28 10:31S 29°52' E 031°02'0 0.0
2016-May-28 09:31S 29°52' E 031°02'0 0.0
2016-May-28 08:31S 29°52' E 031°02'0 0.0
2016-May-28 07:31S 29°52' E 031°02'0 0.0
2016-May-28 06:31S 29°52' E 031°02'0 0.0
2016-May-28 05:31S 29°52' E 031°02'0 0.0
2016-May-28 04:31S 29°52' E 031°02'0 0.0
2016-May-28 03:31S 29°52' E 031°02'0 0.0
2016-May-28 02:28S 29°52' E 031°02'0 0.0
2016-May-28 01:31S 29°52' E 031°02'0 0.0
2016-May-28 00:31S 29°52' E 031°02'0 0.0
2016-May-27 23:25S 29°52' E 031°02'0 0.0
2016-May-27 22:31S 29°52' E 031°02'0 0.0
2016-May-27 21:31S 29°52' E 031°02'0 0.0
2016-May-27 20:28S 29°52' E 031°02'0 0.0
2016-May-27 19:31S 29°52' E 031°02'0 0.0
2016-May-27 18:33S 29°52' E 031°02'5 5.3
2016-May-27 17:33S 29°50' E 031°07'4 4.2
2016-May-27 16:33S 29°50' E 031°12'1 0.6
2016-May-27 15:33S 29°50' E 031°13'2 2.0
2016-May-27 14:33S 29°50' E 031°11'1 0.7
2016-May-27 13:33S 29°49' E 031°10'0 0.3
2016-May-27 12:33S 29°49' E 031°10'0 0.5
2016-May-27 11:33S 29°50' E 031°11'0 0.3
2016-May-27 10:33S 29°50' E 031°11'0 0.2
2016-May-27 09:33S 29°50' E 031°11'0 0.3
2016-May-27 08:33S 29°50' E 031°11'0 0.4
2016-May-27 07:33S 29°50' E 031°12'0 0.4
2016-May-27 06:33S 29°50' E 031°12'3 2.5
2016-May-27 05:33S 29°49' E 031°14'1 1.1
2016-May-27 04:33S 29°48' E 031°15'0 0.5
2016-May-27 03:33S 29°49' E 031°15'1 0.5
2016-May-27 02:33S 29°49' E 031°15'1 1.1
2016-May-27 01:33S 29°50' E 031°14'1 1.1
2016-May-27 00:33S 29°50' E 031°13'4 3.5
2016-May-26 23:33S 29°47' E 031°10'1414.1
2016-May-26 22:33S 29°38' E 031°23'1414.5
2016-May-26 21:33S 29°30' E 031°36'1414.2
2016-May-26 20:33S 29°21' E 031°49'  
Track history (hours):
 
Tides and Currents Weather Stations Pressure Air Temp Water Temp Dewpoint Dewpoint Depression Visibility Wind Speed Wind Dir Waves Ship Positions

Swift Ace

Last reported at 2016-May-31 22:13 UTC. Time now 2016-Jun-01 01:46 UTC.
Position S 33°24' E 017°31'.

Length 200 m; draft 8.6 m.

Type: Cargo ship. MMSI: 310968322.

Date/timePositionNaut miles runAvg speedWind from/ knotsBaromVisibWave heightAir tempDewpointWater temp
2016-May-31 22:13S 33°24' E 017°31'1115.9
2016-May-31 21:33S 33°34' E 017°35'1615.9
2016-May-31 20:33S 33°49' E 017°42'1615.5
2016-May-31 19:33S 34°04' E 017°48'1615.6
2016-May-31 18:32S 34°18' E 017°56'1615.5
2016-May-31 17:31S 34°31' E 018°08'  
2016-May-29 02:24S 30°41' E 030°42'1315.1
2016-May-29 01:33S 30°30' E 030°50'1515.0
2016-May-29 00:33S 30°17' E 030°59'1414.1
2016-May-28 23:34S 30°05' E 031°08'1312.6
2016-May-28 22:33S 29°53' E 031°09'6 5.8
2016-May-28 21:31S 29°52' E 031°02'0 0.0
2016-May-28 20:31S 29°52' E 031°02'0 0.0
2016-May-28 19:31S 29°52' E 031°02'0 0.0
2016-May-28 18:31S 29°52' E 031°02'0 0.0
2016-May-28 17:31S 29°52' E 031°02'0 0.0
2016-May-28 16:31S 29°52' E 031°02'0 0.0
2016-May-28 15:31S 29°52' E 031°02'0 0.0
2016-May-28 14:31S 29°52' E 031°02'0 0.0
2016-May-28 13:31S 29°52' E 031°02'0 0.0
2016-May-28 12:31S 29°52' E 031°02'0 0.0
2016-May-28 11:31S 29°52' E 031°02'0 0.0
2016-May-28 10:31S 29°52' E 031°02'0 0.0
2016-May-28 09:31S 29°52' E 031°02'0 0.0
2016-May-28 08:31S 29°52' E 031°02'0 0.0
2016-May-28 07:31S 29°52' E 031°02'0 0.0
2016-May-28 06:31S 29°52' E 031°02'0 0.0
2016-May-28 05:31S 29°52' E 031°02'0 0.0
2016-May-28 04:31S 29°52' E 031°02'0 0.0
2016-May-28 03:31S 29°52' E 031°02'0 0.0
2016-May-28 02:28S 29°52' E 031°02'0 0.0
2016-May-28 01:31S 29°52' E 031°02'0 0.0
2016-May-28 00:31S 29°52' E 031°02'0 0.0
2016-May-27 23:25S 29°52' E 031°02'0 0.0
2016-May-27 22:31S 29°52' E 031°02'0 0.0
2016-May-27 21:31S 29°52' E 031°02'0 0.0
2016-May-27 20:28S 29°52' E 031°02'0 0.0
2016-May-27 19:31S 29°52' E 031°02'0 0.0
2016-May-27 18:33S 29°52' E 031°02'5 5.3
2016-May-27 17:33S 29°50' E 031°07'4 4.2
2016-May-27 16:33S 29°50' E 031°12'1 0.6
2016-May-27 15:33S 29°50' E 031°13'2 2.0
2016-May-27 14:33S 29°50' E 031°11'1 0.7
2016-May-27 13:33S 29°49' E 031°10'0 0.3
2016-May-27 12:33S 29°49' E 031°10'0 0.5
2016-May-27 11:33S 29°50' E 031°11'0 0.3
2016-May-27 10:33S 29°50' E 031°11'0 0.2
2016-May-27 09:33S 29°50' E 031°11'0 0.3
2016-May-27 08:33S 29°50' E 031°11'0 0.4
2016-May-27 07:33S 29°50' E 031°12'0 0.4
2016-May-27 06:33S 29°50' E 031°12'3 2.5
2016-May-27 05:33S 29°49' E 031°14'1 1.1
2016-May-27 04:33S 29°48' E 031°15'0 0.5
2016-May-27 03:33S 29°49' E 031°15'1 0.5
2016-May-27 02:33S 29°49' E 031°15'1 1.1
2016-May-27 01:33S 29°50' E 031°14'1 1.1
2016-May-27 00:33S 29°50' E 031°13'4 3.5
2016-May-26 23:33S 29°47' E 031°10'1414.1
2016-May-26 22:33S 29°38' E 031°23'1414.5
2016-May-26 21:33S 29°30' E 031°36'1414.2
2016-May-26 20:33S 29°21' E 031°49'  

Dump ship's entire track history